Flight Track Log - Related Links

Times and Time Zones

All times are in EDT time to prevent confusion due to time zone crossing. See the ERR86 flight status page for this flight to view local times or setup timezone preferences in your user account.

Time Position Orientation Groundspeed Altitude Reporting Facility
EDT Latitude Longitude Course Direction KTS MPH feet Rate Location/Type
Thu 10:11:04 PM 55.2667 -131.6667 313° West 110 127 5,500  Level Anchorage Center
Thu 10:12:05 PM 55.2333 -131.6333 150° Southeast 130 150 7,300 1,736 Climbing Anchorage Center
Thu 10:13:05 PM 55.1833 -131.6333 180° South 160 184 9,000 1,700 Climbing Anchorage Center
Thu 10:14:05 PM 55.1667 -131.6500 210° Southwest 110 127 10,700 1,600 Climbing Anchorage Center
Thu 10:15:00 PM 55.0833 -131.6332 311° West  Level FlightAware Approximate
Thu 10:15:05 PM 55.1833 -131.7000 300° West 160 184 12,200  Level Anchorage Center
Thu 10:16:00 PM 55.1179 -131.7189 313° West  Level FlightAware Approximate
Thu 10:16:05 PM 55.2167 -131.7667 311° West 160 184 13,700  Level Anchorage Center
Thu 10:17:05 PM 55.2500 -131.8333 311° West 170 196 15,100 1,500 Climbing Anchorage Center
Thu 10:18:05 PM 55.2833 -131.9000 311° West 170 196 16,700 1,500 Climbing Anchorage Center
Thu 10:20:05 PM 55.3333 -132.0333 303° West 180 207 19,600 1,333 Climbing Anchorage Center
Thu 10:21:05 PM 55.3667 -132.1000 311° West 180 207 20,700 1,000 Climbing Anchorage Center
Thu 10:22:05 PM 55.4000 -132.1667 311° West 180 207 21,600 900 Climbing Anchorage Center
Thu 10:23:05 PM 55.4333 -132.2333 311° West 190 219 22,500 800 Climbing Anchorage Center
Thu 10:24:05 PM 55.4667 -132.3000 311° West 190 219 23,200 744 Climbing Anchorage Center
Thu 10:25:06 PM 55.5000 -132.3833 305° West 180 207 24,000 397 Climbing Anchorage Center
Thu 10:26:06 PM 55.5333 -132.4500 311° West 200 230 24,000  Level Anchorage Center
Thu 10:27:06 PM 55.5667 -132.5333 305° West 230 265 24,000  Level Anchorage Center
Thu 10:28:06 PM 55.6167 -132.6333 312° West 230 265 24,000  Level Anchorage Center
Thu 10:29:06 PM 55.6500 -132.7333 301° West 240 276 24,000  Level Anchorage Center
Thu 10:30:06 PM 55.7000 -132.8167 317° Northwest 240 276 24,000  Level Anchorage Center
Thu 10:31:06 PM 55.7333 -132.9000 305° West 240 276 24,000  Level Anchorage Center
Thu 10:32:07 PM 55.7833 -133.0000 312° West 240 276 24,000  Level Anchorage Center
Thu 10:33:06 PM 55.8167 -133.1000 301° West 240 276 24,000  Level Anchorage Center
Thu 10:34:07 PM 55.8667 -133.1833 317° Northwest 240 276 24,000  Level Anchorage Center
Thu 10:35:06 PM 55.8833 -133.2667 290° West 240 276 24,000  Level Anchorage Center
Thu 10:36:06 PM 55.9333 -133.3500 317° Northwest 240 276 24,000  Level Anchorage Center
Thu 10:37:06 PM 55.9667 -133.4500 301° West 240 276 24,000  Level Anchorage Center
Thu 10:38:06 PM 56.0167 -133.5333 317° Northwest 240 276 24,000  Level Anchorage Center
Thu 10:39:07 PM 56.0500 -133.6333 301° West 240 276 24,000  Level Anchorage Center
Thu 10:40:07 PM 56.1000 -133.7167 317° Northwest 230 265 24,000  Level Anchorage Center
Thu 10:41:07 PM 56.1333 -133.8167 301° West 240 276 24,000  Level Anchorage Center
Thu 10:42:07 PM 56.1833 -133.9167 312° West 240 276 24,000  Level Anchorage Center
Thu 10:43:07 PM 56.2167 -134.0000 306° West 230 265 24,000  Level Anchorage Center
Thu 10:44:07 PM 56.2500 -134.1000 301° West 240 276 24,000  Level Anchorage Center
Thu 10:45:07 PM 56.3000 -134.2000 312° West 240 276 24,000  Level Anchorage Center
Thu 10:46:07 PM 56.3333 -134.2833 306° West 240 276 24,000  Level Anchorage Center
Thu 10:47:07 PM 56.3667 -134.3833 301° West 240 276 24,000  Level Anchorage Center
Thu 10:48:07 PM 56.4167 -134.4833 312° West 240 276 24,000  Level Anchorage Center
Thu 10:49:08 PM 56.4500 -134.5667 306° West 230 265 24,000  Level Anchorage Center
Thu 10:50:08 PM 56.5000 -134.6667 312° West 240 276 24,000  Level Anchorage Center
Thu 10:51:08 PM 56.5333 -134.7667 301° West 240 276 24,000  Level Anchorage Center
Thu 10:52:08 PM 56.5667 -134.8500 306° West 230 265 24,000  Level Anchorage Center
Thu 10:53:08 PM 56.6167 -134.9500 312° West 240 276 24,000  Level Anchorage Center
Thu 10:54:08 PM 56.6500 -135.0500 301° West 240 276 24,000  Level Anchorage Center
Thu 10:55:08 PM 56.6833 -135.1500 301° West 230 265 24,000  Level Anchorage Center
Thu 10:56:08 PM 56.7333 -135.2333 318° Northwest 240 276 24,000  Level Anchorage Center
Thu 10:57:08 PM 56.7667 -135.3333 301° West 230 265 24,000  Level Anchorage Center
Thu 11:00:00 PM 56.8352 -135.5113 305° West  Level FlightAware Approximate
Thu 11:01:19 PM 56.9333 -135.7500 305° West 250 288 24,000  Level Anchorage Center
Thu 11:02:19 PM 56.9833 -135.8333 318° Northwest 250 288 24,000  Level Anchorage Center
Thu 11:03:19 PM 57.0167 -135.9333 302° West 230 265 24,000  Level Anchorage Center
Thu 11:04:19 PM 57.0667 -136.0333 313° West 230 265 24,000  Level Anchorage Center
Thu 11:05:19 PM 57.1000 -136.1333 302° West 230 265 24,000  Level Anchorage Center
Thu 11:06:19 PM 57.1500 -136.2167 318° Northwest 240 276 24,000  Level Anchorage Center
Thu 11:07:19 PM 57.1833 -136.3167 302° West 230 265 24,000  Level Anchorage Center
Thu 11:08:19 PM 57.2167 -136.4167 302° West 230 265 24,000  Level Anchorage Center
Thu 11:09:20 PM 57.2667 -136.5000 318° Northwest 220 253 24,000  Level Anchorage Center
Thu 11:10:20 PM 57.3000 -136.6000 302° West 230 265 24,000  Level Anchorage Center
Thu 11:11:19 PM 57.3333 -136.6833 307° West 220 253 24,000  Level Anchorage Center
Thu 11:12:20 PM 57.3833 -136.7833 313° West 230 265 24,000  Level Anchorage Center
Thu 11:13:20 PM 57.4167 -136.8667 307° West 220 253 24,000  Level Anchorage Center
Thu 11:14:20 PM 57.4500 -136.9667 302° West 220 253 24,000  Level Anchorage Center
Thu 11:15:20 PM 57.4833 -137.0667 302° West 230 265 24,000  Level Anchorage Center
Thu 11:16:20 PM 57.5333 -137.1500 318° Northwest 220 253 24,000  Level Anchorage Center
Thu 11:17:20 PM 57.5667 -137.2500 302° West 220 253 24,000  Level Anchorage Center
Thu 11:18:20 PM 57.6000 -137.3500 302° West 230 265 24,000  Level Anchorage Center
Thu 11:19:20 PM 57.6333 -137.4333 307° West 220 253 24,000  Level Anchorage Center
Thu 11:20:20 PM 57.6833 -137.5333 313° West 230 265 24,000  Level Anchorage Center
Thu 11:21:20 PM 57.7167 -137.6333 302° West 220 253 24,000  Level Anchorage Center
Thu 11:22:20 PM 57.7500 -137.7167 307° West 240 276 24,000  Level Anchorage Center
Thu 11:23:21 PM 57.7833 -137.8167 302° West 220 253 24,000  Level Anchorage Center
Thu 11:24:20 PM 57.8333 -137.9167 313° West 230 265 24,000  Level Anchorage Center
Thu 11:25:20 PM 57.8667 -138.0000 307° West 230 265 24,000  Level Anchorage Center
Thu 11:26:21 PM 57.9000 -138.1000 302° West 230 265 24,000  Level Anchorage Center
Thu 11:27:21 PM 57.9333 -138.2000 302° West 230 265 24,000  Level Anchorage Center
Thu 11:28:21 PM 57.9833 -138.3000 313° West 220 253 24,000  Level Anchorage Center
Thu 11:29:21 PM 58.0167 -138.3833 307° West 220 253 24,000  Level Anchorage Center
Thu 11:30:21 PM 58.0500 -138.4833 302° West 230 265 24,000  Level Anchorage Center
Thu 11:31:21 PM 58.0833 -138.5667 307° West 220 253 24,000  Level Anchorage Center
Thu 11:32:21 PM 58.1167 -138.6667 302° West 220 253 24,000  Level Anchorage Center
Thu 11:33:21 PM 58.1500 -138.7667 302° West 220 253 24,000  Level Anchorage Center
Thu 11:34:22 PM 58.2000 -138.8500 319° Northwest 220 253 24,000  Level Anchorage Center
Thu 11:35:22 PM 58.2333 -138.9500 302° West 210 242 24,000  Level Anchorage Center
Thu 11:36:22 PM 58.2667 -139.0500 302° West 220 253 24,000  Level Anchorage Center
Thu 11:37:22 PM 58.3000 -139.1333 307° West 220 253 24,000  Level Anchorage Center
Thu 11:38:22 PM 58.3333 -139.2333 302° West 220 253 24,000  Level Anchorage Center
Thu 11:39:22 PM 58.3667 -139.3333 302° West 220 253 24,000  Level Anchorage Center
Thu 11:40:22 PM 58.4000 -139.4333 302° West 220 253 24,000  Level Anchorage Center
Thu 11:41:23 PM 58.4333 -139.5167 307° West 220 253 24,000  Level Anchorage Center
Thu 11:42:23 PM 58.4833 -139.6167 314° West 220 253 24,000  Level Anchorage Center
Thu 11:43:22 PM 58.5167 -139.7167 303° West 220 253 24,000  Level Anchorage Center
Thu 11:44:23 PM 58.5500 -139.8167 303° West 220 253 24,000  Level Anchorage Center
Thu 11:45:23 PM 58.5833 -139.9167 303° West 220 253 24,000  Level Anchorage Center
Thu 11:46:23 PM 58.6167 -140.0167 303° West 220 253 24,000  Level Anchorage Center
Thu 11:47:23 PM 58.6500 -140.1167 303° West 210 242 24,000  Level Anchorage Center
Thu 11:48:23 PM 58.6833 -140.2167 303° West 220 253 24,000  Level Anchorage Center
Thu 11:49:23 PM 58.7167 -140.3000 308° West 220 253 24,000  Level Anchorage Center
Thu 11:50:23 PM 58.7500 -140.4000 303° West 220 253 24,000  Level Anchorage Center
Thu 11:51:23 PM 58.7833 -140.5000 303° West 210 242 24,000  Level Anchorage Center
Thu 11:52:23 PM 58.8167 -140.6000 303° West 220 253 24,000  Level Anchorage Center
Thu 11:53:23 PM 58.8667 -140.7000 314° West 220 253 24,000  Level Anchorage Center
Thu 11:54:24 PM 58.9000 -140.8000 303° West 220 253 24,000  Level Anchorage Center
Thu 11:55:24 PM 58.9333 -140.9000 303° West 220 253 24,000  Level Anchorage Center
Thu 11:56:24 PM 58.9667 -141.0000 303° West 230 265 24,000  Level Anchorage Center
Thu 11:57:24 PM 59.0000 -141.0833 308° West 220 253 24,000  Level Anchorage Center
Thu 11:58:24 PM 59.0333 -141.2000 299° West 240 276 24,000  Level Anchorage Center
Thu 11:59:24 PM 59.0667 -141.3000 303° West 230 265 24,000  Level Anchorage Center
Fri 12:00:24 AM 59.1000 -141.4000 303° West 230 265 24,000  Level Anchorage Center
Fri 12:01:24 AM 59.1333 -141.5167 299° West 230 265 24,000  Level Anchorage Center
Fri 12:02:24 AM 59.1667 -141.6167 303° West 230 265 24,000  Level Anchorage Center
Fri 12:03:24 AM 59.2000 -141.7167 303° West 230 265 24,000  Level Anchorage Center
Fri 12:04:25 AM 59.2500 -141.8333 310° West 230 265 24,000  Level Anchorage Center
Fri 12:05:25 AM 59.2833 -141.9333 303° West 230 265 24,000  Level Anchorage Center
Fri 12:06:25 AM 59.3167 -142.0500 299° West 250 288 24,000  Level Anchorage Center
Fri 12:07:25 AM 59.3500 -142.1667 299° West 240 276 24,000  Level Anchorage Center
Fri 12:08:25 AM 59.3833 -142.2833 299° West 240 276 24,000  Level Anchorage Center
Fri 12:09:25 AM 59.4167 -142.4000 299° West 240 276 24,000  Level Anchorage Center
Fri 12:10:25 AM 59.4500 -142.5167 299° West 240 276 24,000  Level Anchorage Center
Fri 12:11:26 AM 59.4833 -142.6333 299° West 240 276 24,000  Level Anchorage Center
Fri 12:12:26 AM 59.5167 -142.7667 296° West 240 276 24,000  Level Anchorage Center
Fri 12:13:25 AM 59.5500 -142.8833 299° West 250 288 24,000  Level Anchorage Center
Fri 12:14:25 AM 59.5833 -143.0000 299° West 260 299 24,000  Level Anchorage Center
Fri 12:15:26 AM 59.6167 -143.1333 296° West 260 299 24,000  Level Anchorage Center
Fri 12:16:26 AM 59.6333 -143.2500 286° West 260 299 24,000  Level Anchorage Center
Fri 12:17:26 AM 59.6667 -143.3833 296° West 260 299 24,000  Level Anchorage Center
Fri 12:18:26 AM 59.7000 -143.5000 300° West 260 299 24,000  Level Anchorage Center
Fri 12:19:26 AM 59.7333 -143.6333 296° West 260 299 24,000  Level Anchorage Center
Fri 12:20:26 AM 59.7667 -143.7667 296° West 260 299 24,000  Level Anchorage Center
Fri 12:21:26 AM 59.8000 -143.8833 300° West 240 276 24,000  Level Anchorage Center
Fri 12:22:26 AM 59.8333 -144.0167 296° West 250 288 24,000  Level Anchorage Center
Fri 12:23:26 AM 59.8667 -144.1333 300° West 250 288 24,000  Level Anchorage Center
Fri 12:24:26 AM 59.9000 -144.2667 297° West 250 288 24,000  Level Anchorage Center
Fri 12:25:27 AM 59.9167 -144.4000 284° West 250 288 24,000  Level Anchorage Center
Fri 12:26:27 AM 59.9500 -144.5333 297° West 270 311 24,000  Level Anchorage Center
Fri 12:27:27 AM 59.9833 -144.6500 300° West 260 299 24,000  Level Anchorage Center
Fri 12:28:27 AM 60.0167 -144.7833 297° West 260 299 24,000  Level Anchorage Center
Fri 12:29:27 AM 60.0500 -144.9167 297° West 260 299 24,000  Level Anchorage Center
Fri 12:30:27 AM 60.0833 -145.0500 297° West 260 299 24,000  Level Anchorage Center
Fri 12:31:27 AM 60.1167 -145.1833 297° West 260 299 24,000  Level Anchorage Center
Fri 12:32:27 AM 60.1500 -145.3000 300° West 260 299 24,000  Level Anchorage Center
Fri 12:33:27 AM 60.1667 -145.4333 284° West 270 311 24,000  Level Anchorage Center
Fri 12:34:27 AM 60.2000 -145.5667 297° West 260 299 24,000  Level Anchorage Center
Fri 12:35:27 AM 60.2333 -145.7000 297° West 260 299 24,000  Level Anchorage Center
Fri 12:36:27 AM 60.2667 -145.8500 294° West 270 311 24,000  Level Anchorage Center
Fri 12:37:27 AM 60.3000 -145.9833 297° West 270 311 24,000  Level Anchorage Center
Fri 12:38:27 AM 60.3333 -146.1167 297° West 270 311 24,000  Level Anchorage Center
Fri 12:39:27 AM 60.3500 -146.2500 284° West 270 311 24,000  Level Anchorage Center
Fri 12:40:28 AM 60.3833 -146.3833 297° West 270 311 24,000  Level Anchorage Center
Fri 12:41:28 AM 60.4167 -146.5333 294° West 270 311 24,000  Level Anchorage Center
Fri 12:42:28 AM 60.4500 -146.6667 297° West 270 311 24,000  Level Anchorage Center
Fri 12:43:28 AM 60.4833 -146.8000 297° West 270 311 24,000  Level Anchorage Center
Fri 12:44:28 AM 60.5167 -146.9333 297° West 260 299 24,000  Level Anchorage Center
Fri 12:45:28 AM 60.5333 -147.0833 283° West 270 311 24,000  Level Anchorage Center
Fri 12:46:28 AM 60.5667 -147.2167 297° West 270 311 24,000  Level Anchorage Center
Fri 12:47:28 AM 60.6000 -147.3500 297° West 270 311 24,000  Level Anchorage Center
Fri 12:48:28 AM 60.6333 -147.5000 294° West 260 299 24,000 -50 Level Anchorage Center
Fri 12:49:28 AM 60.6500 -147.6333 284° West 260 299 23,900 -600 Descending Anchorage Center
Fri 12:50:28 AM 60.6833 -147.7833 294° West 290 334 22,800 -1,140 Descending Anchorage Center
Fri 12:51:29 AM 60.7167 -147.9500 292° West 290 334 21,600 -1,140 Descending Anchorage Center
Fri 12:52:29 AM 60.7500 -148.1000 295° West 290 334 20,500 -1,160 Descending Anchorage Center
Fri 12:53:28 AM 60.7833 -148.2500 295° West 290 334 19,300 -1,311 Descending Anchorage Center
Fri 12:54:28 AM 60.8167 -148.4000 295° West 280 322 17,900 -1,388 Descending Anchorage Center
Fri 12:55:29 AM 60.8333 -148.5500 283° West 280 322 16,500 -1,240 Descending Anchorage Center
Fri 12:56:29 AM 60.8667 -148.7000 295° West 280 322 15,400 -1,150 Descending Anchorage Center
Fri 12:57:29 AM 60.9000 -148.8500 295° West 280 322 14,200 -1,200 Descending Anchorage Center
Fri 12:59:00 AM 60.9333 -149.0406 290° West  Level FlightAware Approximate
Fri 01:06:00 AM 61.1375 -149.8667 297° West  Level FlightAware Approximate
Fri 01:07:00 AM 61.1667 -149.9833 297° West  Level FlightAware Approximate
Fri 01:08:00 AM 61.1741 -149.9982 297° West  Level Estimated
Fri 01:09:00 AM 61.1741 -149.9982 297° West  Level Estimated
Fri 01:10:00 AM 61.1741 -149.9982 297° West  Level Estimated
Fri 01:11:00 AM 61.1741 -149.9982 297° West  Level Estimated
Fri 01:12:00 AM 61.1741 -149.9982 297° West  Level Estimated
Fri 01:13:00 AM 61.1741 -149.9982 297° West  Level Estimated
Fri 01:14:00 AM 61.1741 -149.9982 297° West  Level Estimated
Fri 01:15:00 AM 61.1741 -149.9982 297° West  Level Estimated
Fri 01:16:00 AM 61.1741 -149.9982 297° West  Level Estimated
Fri 01:17:00 AM 61.1741 -149.9982 297° West  Level Estimated
Fri 01:18:00 AM 61.1741 -149.9982 297° West  Level Estimated
Fri 01:19:00 AM 61.1741 -149.9982 297° West  Level Estimated
Fri 01:20:00 AM 61.1741 -149.9982 297° West  Level Estimated
Fri 01:21:00 AM 61.1741 -149.9982 297° West  Level Estimated
Fri 01:22:00 AM 61.1741 -149.9982 297° West  Level Estimated
Fri 01:23:00 AM 61.1741 -149.9982 297° West  Level Estimated
Fri 01:24:00 AM 61.1741 -149.9982 297° West  Level Estimated
Fri 01:25:00 AM 61.1741 -149.9982 297° West  Level Estimated
Fri 01:26:00 AM 61.1741 -149.9982 297° West  Level Estimated

Login

Don't have an account? Register now (free) for customized features, flight alerts, and more!